createdAt,value
2022-08-27T00:00:53.832Z,16.70
2022-08-27T00:03:22.948Z,16.60
2022-08-27T00:05:52.315Z,16.70
2022-08-27T00:08:21.412Z,16.70
2022-08-27T00:10:50.424Z,16.60
2022-08-27T00:13:19.522Z,16.60
2022-08-27T00:15:48.555Z,16.70
2022-08-27T00:18:22.575Z,16.60
2022-08-27T00:20:52.468Z,16.60
2022-08-27T00:23:21.514Z,16.60
2022-08-27T00:25:51.096Z,16.50
2022-08-27T00:28:20.258Z,16.50
2022-08-27T00:30:49.324Z,16.50
2022-08-27T00:33:21.577Z,16.50
2022-08-27T00:35:51.385Z,16.50
2022-08-27T00:38:21.987Z,16.50
2022-08-27T00:40:52.581Z,16.40
2022-08-27T00:43:24.058Z,16.40
2022-08-27T00:45:56.933Z,16.40
2022-08-27T00:48:31.119Z,16.30
2022-08-27T00:51:00.317Z,16.40
2022-08-27T00:53:33.368Z,16.40
2022-08-27T00:56:08.691Z,16.30
2022-08-27T00:58:39.710Z,16.30
2022-08-27T01:01:11.808Z,16.30
2022-08-27T01:03:46.306Z,16.20
2022-08-27T01:06:17.426Z,16.20
2022-08-27T01:08:52.229Z,16.20
2022-08-27T01:11:22.108Z,16.10
2022-08-27T01:13:59.999Z,16.10
2022-08-27T01:16:34.006Z,16.10
2022-08-27T01:19:07.395Z,16.00
2022-08-27T01:21:46.900Z,16.00
2022-08-27T01:24:38.829Z,16.00
2022-08-27T01:27:13.633Z,16.00
2022-08-27T01:29:44.056Z,16.00
2022-08-27T01:32:15.758Z,16.00
2022-08-27T01:34:46.008Z,16.00
2022-08-27T01:37:16.510Z,16.00
2022-08-27T01:39:55.331Z,16.00
2022-08-27T01:42:28.578Z,16.00
2022-08-27T01:44:59.650Z,16.00
2022-08-27T01:47:31.356Z,16.00
2022-08-27T01:50:00.752Z,16.10
2022-08-27T01:52:32.049Z,16.10
2022-08-27T01:55:02.841Z,16.10
2022-08-27T01:57:32.531Z,16.10
2022-08-27T02:00:03.125Z,16.10
2022-08-27T02:02:41.271Z,16.00
2022-08-27T02:05:10.942Z,16.00
2022-08-27T02:07:41.103Z,16.00
2022-08-27T02:10:17.957Z,16.00
2022-08-27T02:12:47.268Z,16.00
2022-08-27T02:15:16.409Z,16.00
2022-08-27T02:17:45.829Z,15.90
2022-08-27T02:20:16.061Z,15.90
2022-08-27T02:22:45.938Z,15.90
2022-08-27T02:25:19.627Z,15.90
2022-08-27T02:27:50.724Z,15.90
2022-08-27T02:30:23.086Z,15.90
2022-08-27T02:32:53.179Z,15.90
2022-08-27T02:35:24.988Z,15.90
2022-08-27T02:37:55.522Z,15.90
2022-08-27T02:40:26.494Z,15.90
2022-08-27T02:42:55.583Z,15.80
2022-08-27T02:45:24.747Z,15.90
2022-08-27T02:47:54.395Z,15.80
2022-08-27T02:50:27.345Z,15.80
2022-08-27T02:52:56.884Z,15.80
2022-08-27T02:55:28.014Z,15.80
2022-08-27T02:57:57.823Z,15.80
2022-08-27T03:00:28.875Z,15.70
2022-08-27T03:02:58.526Z,15.70
2022-08-27T03:05:28.313Z,15.70
2022-08-27T03:07:59.922Z,15.60
2022-08-27T03:10:30.946Z,15.70
2022-08-27T03:13:00.162Z,15.60
2022-08-27T03:15:29.321Z,15.60
2022-08-27T03:18:16.003Z,15.60
2022-08-27T03:20:46.634Z,15.60
2022-08-27T03:23:16.497Z,15.60
2022-08-27T03:25:49.336Z,15.60
2022-08-27T03:28:22.651Z,15.60
2022-08-27T03:30:54.142Z,15.50
2022-08-27T03:33:23.734Z,15.50
2022-08-27T03:35:52.830Z,15.60
2022-08-27T03:38:22.492Z,15.50
2022-08-27T03:40:53.877Z,15.50
2022-08-27T03:43:23.468Z,15.50
2022-08-27T03:46:01.463Z,15.40
2022-08-27T03:48:35.215Z,15.50
2022-08-27T03:51:08.251Z,15.40
2022-08-27T03:53:38.061Z,15.40
2022-08-27T03:56:09.157Z,15.40
2022-08-27T03:58:39.025Z,15.40
2022-08-27T04:01:08.512Z,15.40
2022-08-27T04:03:37.676Z,15.40
2022-08-27T04:06:07.191Z,15.40
2022-08-27T04:08:36.397Z,15.40
2022-08-27T04:11:08.817Z,15.30
2022-08-27T04:13:38.362Z,15.30
2022-08-27T04:16:08.226Z,15.40
2022-08-27T04:18:37.389Z,15.30
2022-08-27T04:21:11.288Z,15.30
2022-08-27T04:23:41.259Z,15.30
2022-08-27T04:26:12.647Z,15.30
2022-08-27T04:28:42.227Z,15.30
2022-08-27T04:31:18.265Z,15.20
2022-08-27T04:33:51.365Z,15.20
2022-08-27T04:36:21.365Z,15.30
2022-08-27T04:38:50.980Z,15.20
2022-08-27T04:41:21.566Z,15.20
2022-08-27T04:43:52.288Z,15.20
2022-08-27T04:46:22.992Z,15.20
2022-08-27T04:48:52.220Z,15.20
2022-08-27T04:51:22.144Z,15.20
2022-08-27T04:53:51.668Z,15.30
2022-08-27T04:56:23.806Z,15.20
2022-08-27T04:58:53.628Z,15.20
2022-08-27T05:01:27.158Z,15.20
2022-08-27T05:03:56.732Z,15.20
2022-08-27T05:06:26.596Z,15.10
2022-08-27T05:08:56.123Z,15.00
2022-08-27T05:11:32.386Z,15.10
2022-08-27T05:14:04.124Z,15.10
2022-08-27T05:16:36.436Z,15.10
2022-08-27T05:19:08.481Z,15.10
2022-08-27T05:21:40.969Z,15.10
2022-08-27T05:24:10.085Z,15.10
2022-08-27T05:26:40.545Z,15.10
2022-08-27T05:29:09.777Z,15.20
2022-08-27T05:31:39.108Z,15.10
2022-08-27T05:34:10.260Z,15.10
2022-08-27T05:36:48.829Z,15.10
2022-08-27T05:39:18.671Z,15.20
2022-08-27T05:41:49.082Z,15.10
2022-08-27T05:44:40.260Z,15.20
2022-08-27T05:47:07.559Z,15.10
2022-08-27T05:49:36.656Z,15.10
2022-08-27T05:52:10.763Z,15.10
2022-08-27T05:54:40.123Z,15.10
2022-08-27T05:57:10.670Z,15.10
2022-08-27T05:59:57.064Z,15.10
2022-08-27T06:02:26.614Z,15.20
2022-08-27T06:04:55.883Z,15.20
2022-08-27T06:07:24.984Z,15.20
2022-08-27T06:09:54.069Z,15.20
2022-08-27T06:12:28.075Z,15.20
2022-08-27T06:14:57.770Z,15.20
2022-08-27T06:17:26.990Z,15.30
2022-08-27T06:19:56.262Z,15.30
2022-08-27T06:22:25.722Z,15.30
2022-08-27T06:24:54.874Z,15.30
2022-08-27T06:27:25.345Z,15.40
2022-08-27T06:29:54.524Z,15.40
2022-08-27T06:32:24.130Z,15.50
2022-08-27T06:34:53.234Z,15.50
2022-08-27T06:37:22.292Z,15.70
2022-08-27T06:39:51.687Z,15.80
2022-08-27T06:42:20.933Z,15.90
2022-08-27T06:44:56.357Z,16.10
2022-08-27T06:47:26.182Z,16.30
2022-08-27T06:49:55.600Z,16.50
2022-08-27T06:52:24.650Z,16.60
2022-08-27T06:54:53.677Z,16.80
2022-08-27T06:57:24.733Z,16.90
2022-08-27T06:59:55.182Z,17.10
2022-08-27T07:02:24.248Z,17.30
2022-08-27T07:04:54.751Z,17.40
2022-08-27T07:07:31.804Z,17.50
2022-08-27T07:10:06.166Z,17.50
2022-08-27T07:12:35.288Z,17.60
2022-08-27T07:15:06.645Z,17.60
2022-08-27T07:17:35.484Z,17.70
2022-08-27T07:20:06.425Z,17.70
2022-08-27T07:22:35.525Z,17.70
2022-08-27T07:25:04.987Z,17.80
2022-08-27T07:27:34.112Z,17.80
2022-08-27T07:30:03.141Z,17.80
2022-08-27T07:32:34.166Z,17.90
2022-08-27T07:35:03.712Z,17.90
2022-08-27T07:37:35.011Z,18.00
2022-08-27T07:40:07.738Z,18.10
2022-08-27T07:42:54.250Z,18.20
2022-08-27T07:45:23.359Z,18.30
2022-08-27T07:47:54.093Z,18.50
2022-08-27T07:50:23.705Z,18.60
2022-08-27T07:52:53.195Z,18.70
2022-08-27T07:55:22.271Z,18.80
2022-08-27T07:57:51.309Z,18.90
2022-08-27T08:00:21.574Z,19.10
2022-08-27T08:02:51.122Z,19.20
2022-08-27T08:05:21.677Z,19.40
2022-08-27T08:07:52.093Z,19.50
2022-08-27T08:10:22.566Z,19.60
2022-08-27T08:12:52.133Z,19.70
2022-08-27T08:15:21.223Z,19.80
2022-08-27T08:17:50.264Z,19.90
2022-08-27T08:20:27.618Z,20.00
2022-08-27T08:23:06.447Z,20.10
2022-08-27T08:25:39.740Z,20.20
2022-08-27T08:28:08.944Z,20.20
2022-08-27T08:30:38.272Z,20.20
2022-08-27T08:33:07.389Z,20.30
2022-08-27T08:35:40.646Z,20.40
2022-08-27T08:38:11.768Z,20.50
2022-08-27T08:40:43.802Z,20.50
2022-08-27T08:43:27.996Z,20.60
2022-08-27T08:45:58.803Z,20.60
2022-08-27T08:48:30.759Z,20.60
2022-08-27T08:51:06.332Z,20.60
2022-08-27T08:53:47.306Z,20.60
2022-08-27T08:56:26.740Z,20.70
2022-08-27T08:59:02.990Z,20.80
2022-08-27T09:01:32.151Z,20.80
2022-08-27T09:04:04.601Z,20.90
2022-08-27T09:06:41.714Z,20.90
2022-08-27T09:09:21.614Z,20.90
2022-08-27T09:12:00.018Z,21.00
2022-08-27T09:14:37.134Z,21.00
2022-08-27T09:17:11.417Z,21.00
2022-08-27T09:19:41.621Z,21.00
2022-08-27T09:22:20.008Z,21.00
2022-08-27T09:25:01.717Z,20.90
2022-08-27T09:27:31.113Z,21.00
2022-08-27T09:30:00.164Z,21.00
2022-08-27T09:32:34.070Z,21.00
2022-08-27T09:35:06.132Z,21.00
2022-08-27T09:37:41.647Z,21.00
2022-08-27T09:40:23.089Z,21.00
2022-08-27T09:42:54.827Z,20.90
2022-08-27T09:45:26.898Z,20.90
2022-08-27T09:48:03.294Z,21.00
2022-08-27T09:50:40.627Z,21.00
2022-08-27T09:53:21.187Z,21.00
2022-08-27T09:55:56.198Z,21.00
2022-08-27T09:58:29.605Z,21.00
2022-08-27T10:01:05.298Z,21.00
2022-08-27T10:03:35.256Z,21.10
2022-08-27T10:06:04.386Z,21.30
2022-08-27T10:08:42.268Z,21.40
2022-08-27T10:11:19.652Z,21.40
2022-08-27T10:13:54.861Z,21.50
2022-08-27T10:16:43.865Z,21.50
2022-08-27T10:19:26.730Z,21.50
2022-08-27T10:22:01.879Z,21.50
2022-08-27T10:24:38.771Z,21.40
2022-08-27T10:27:17.297Z,21.30
2022-08-27T10:29:54.580Z,21.30
2022-08-27T10:32:45.115Z,21.30
2022-08-27T10:35:19.076Z,21.30
2022-08-27T10:37:59.459Z,21.30
2022-08-27T10:40:34.646Z,21.30
2022-08-27T10:43:18.832Z,21.20
2022-08-27T10:45:54.540Z,21.30
2022-08-27T10:48:30.522Z,21.30
2022-08-27T10:51:07.259Z,21.30
2022-08-27T10:53:43.226Z,21.20
2022-08-27T10:56:18.022Z,21.20
2022-08-27T10:59:00.577Z,21.10
2022-08-27T11:01:43.549Z,21.10
2022-08-27T11:04:19.494Z,21.10
2022-08-27T11:06:55.757Z,21.10
2022-08-27T11:09:35.686Z,21.00
2022-08-27T11:12:14.248Z,21.10
2022-08-27T11:14:52.456Z,21.10
2022-08-27T11:17:32.349Z,21.10
2022-08-27T11:20:08.501Z,21.00
2022-08-27T11:22:41.765Z,20.90
2022-08-27T11:25:20.622Z,20.90
2022-08-27T11:27:52.225Z,20.90
2022-08-27T11:30:29.279Z,20.80
2022-08-27T11:33:13.785Z,20.80
2022-08-27T11:35:59.417Z,20.80
2022-08-27T11:38:41.758Z,20.90
2022-08-27T11:41:45.069Z,20.90
2022-08-27T11:44:16.575Z,20.90
2022-08-27T11:46:48.848Z,20.80
2022-08-27T11:49:28.506Z,20.70
2022-08-27T11:52:00.902Z,20.70
2022-08-27T11:54:33.257Z,20.60
2022-08-27T11:57:02.406Z,20.60
2022-08-27T11:59:33.843Z,20.70
2022-08-27T12:02:26.180Z,20.60
2022-08-27T12:04:57.786Z,20.60
2022-08-27T12:07:31.945Z,20.50
2022-08-27T12:10:22.240Z,20.40
2022-08-27T12:13:11.300Z,20.50
2022-08-27T12:15:56.830Z,20.50
2022-08-27T12:18:59.175Z,20.50
2022-08-27T12:21:45.535Z,20.60
2022-08-27T12:24:37.907Z,20.50
2022-08-27T12:27:32.080Z,20.50
2022-08-27T12:30:04.467Z,20.60
2022-08-27T12:32:39.102Z,20.70
2022-08-27T12:35:15.825Z,20.60
2022-08-27T12:37:48.777Z,20.50
2022-08-27T12:40:28.986Z,20.50
2022-08-27T12:43:07.490Z,20.50
2022-08-27T12:45:46.779Z,20.50
2022-08-27T12:48:20.441Z,20.50
2022-08-27T12:50:55.944Z,20.50
2022-08-27T12:53:47.154Z,20.50
2022-08-27T12:56:42.280Z,20.60
2022-08-27T12:59:33.387Z,20.60
2022-08-27T13:02:15.024Z,20.60
2022-08-27T13:04:44.896Z,20.50
2022-08-27T13:07:15.510Z,20.60
2022-08-27T13:09:44.585Z,20.50
2022-08-27T13:12:19.762Z,20.50
2022-08-27T13:14:56.750Z,20.40
2022-08-27T13:17:26.699Z,20.30
2022-08-27T13:20:00.786Z,20.20
2022-08-27T13:22:38.712Z,20.20
2022-08-27T13:25:21.715Z,20.20
2022-08-27T13:27:56.188Z,20.30
2022-08-27T13:30:35.479Z,20.30
2022-08-27T13:33:07.669Z,20.30
2022-08-27T13:35:37.686Z,20.20
2022-08-27T13:38:08.247Z,20.20
2022-08-27T13:40:39.757Z,20.10
2022-08-27T13:43:12.464Z,20.20
2022-08-27T13:45:43.424Z,20.20
2022-08-27T13:48:13.834Z,20.20
2022-08-27T13:50:50.757Z,20.20
2022-08-27T13:53:43.176Z,20.20
2022-08-27T13:56:12.788Z,20.10
2022-08-27T13:58:41.809Z,20.10
2022-08-27T14:01:13.364Z,20.10
2022-08-27T14:03:50.360Z,20.10
2022-08-27T14:06:35.371Z,20.10
2022-08-27T14:09:19.001Z,20.10
2022-08-27T14:11:49.228Z,20.10
2022-08-27T14:14:19.856Z,20.10
2022-08-27T14:16:58.757Z,20.00
2022-08-27T14:19:36.124Z,20.00
2022-08-27T14:22:06.382Z,19.90
2022-08-27T14:24:36.833Z,20.00
2022-08-27T14:27:13.946Z,19.90
2022-08-27T14:29:43.062Z,19.90
2022-08-27T14:32:12.128Z,19.90
2022-08-27T14:34:41.290Z,19.90
2022-08-27T14:37:10.724Z,19.90
2022-08-27T14:39:43.383Z,19.80
2022-08-27T14:42:14.066Z,19.80
2022-08-27T14:44:43.077Z,19.80
2022-08-27T14:47:13.656Z,19.70
2022-08-27T14:49:45.899Z,19.70
2022-08-27T14:52:15.923Z,19.80
2022-08-27T14:54:46.592Z,19.70
2022-08-27T14:57:15.703Z,19.70
2022-08-27T14:59:44.776Z,19.70
2022-08-27T15:02:15.065Z,19.70
2022-08-27T15:04:47.243Z,19.70
2022-08-27T15:07:17.563Z,19.70
2022-08-27T15:09:48.850Z,19.70
2022-08-27T15:12:25.871Z,19.70
2022-08-27T15:14:56.296Z,19.60
2022-08-27T15:17:35.050Z,19.50
2022-08-27T15:20:07.995Z,19.50
2022-08-27T15:22:38.697Z,19.50
2022-08-27T15:25:16.562Z,19.60
2022-08-27T15:27:45.614Z,19.60
2022-08-27T15:30:26.930Z,19.60
2022-08-27T15:32:56.984Z,19.60
2022-08-27T15:35:28.212Z,19.60
2022-08-27T15:37:58.388Z,19.50
2022-08-27T15:40:32.315Z,19.50
2022-08-27T15:43:03.440Z,19.40
2022-08-27T15:45:33.170Z,19.40
2022-08-27T15:48:02.456Z,19.40
2022-08-27T15:50:31.934Z,19.40
2022-08-27T15:53:03.037Z,19.40
2022-08-27T15:55:36.430Z,19.40
2022-08-27T15:58:10.728Z,19.30
2022-08-27T16:00:41.283Z,19.30
2022-08-27T16:03:13.233Z,19.30
2022-08-27T16:05:44.856Z,19.20
2022-08-27T16:08:14.450Z,19.20
2022-08-27T16:10:44.977Z,19.20
2022-08-27T16:13:13.986Z,19.20
2022-08-27T16:15:43.348Z,19.20
2022-08-27T16:18:13.311Z,19.20
2022-08-27T16:20:42.874Z,19.20
2022-08-27T16:23:13.856Z,19.20
2022-08-27T16:25:44.336Z,19.10
2022-08-27T16:28:13.439Z,19.10
2022-08-27T16:30:43.464Z,19.10
2022-08-27T16:33:14.317Z,19.00
2022-08-27T16:35:43.705Z,19.00
2022-08-27T16:38:13.057Z,19.10
2022-08-27T16:40:46.082Z,19.10
2022-08-27T16:43:20.940Z,19.10
2022-08-27T16:45:50.685Z,19.10
2022-08-27T16:48:37.937Z,19.20
2022-08-27T16:51:09.237Z,19.20
2022-08-27T16:53:41.716Z,19.20
2022-08-27T16:56:12.198Z,19.20
2022-08-27T16:58:43.909Z,19.20
2022-08-27T17:01:15.202Z,19.20
2022-08-27T17:04:07.630Z,19.20
2022-08-27T17:06:35.279Z,19.20
2022-08-27T17:09:08.914Z,19.20
2022-08-27T17:11:42.005Z,19.20
2022-08-27T17:14:12.457Z,19.20
2022-08-27T17:16:43.437Z,19.20
2022-08-27T17:19:13.313Z,19.20
2022-08-27T17:21:46.701Z,19.20
2022-08-27T17:24:15.931Z,19.20
2022-08-27T17:26:46.520Z,19.10
2022-08-27T17:29:15.803Z,19.10
2022-08-27T17:31:44.874Z,19.10
2022-08-27T17:34:17.932Z,19.10
2022-08-27T17:36:47.344Z,19.10
2022-08-27T17:39:17.151Z,19.10
2022-08-27T17:41:49.887Z,19.10
2022-08-27T17:44:24.527Z,19.10
2022-08-27T17:46:54.996Z,19.10
2022-08-27T17:49:26.820Z,19.10
2022-08-27T17:51:59.868Z,19.10
2022-08-27T17:54:32.528Z,19.20
2022-08-27T17:57:04.052Z,19.10
2022-08-27T17:59:33.298Z,19.10
2022-08-27T18:02:02.601Z,19.10
2022-08-27T18:04:33.007Z,19.10
2022-08-27T18:07:02.254Z,19.10
2022-08-27T18:09:31.275Z,19.00
2022-08-27T18:12:02.036Z,19.10
2022-08-27T18:14:31.280Z,19.00
2022-08-27T18:17:00.439Z,19.00
2022-08-27T18:19:29.904Z,19.00
2022-08-27T18:21:59.242Z,19.00
2022-08-27T18:24:29.727Z,19.00
2022-08-27T18:26:58.994Z,19.00
2022-08-27T18:29:29.953Z,18.90
2022-08-27T18:31:58.989Z,18.90
2022-08-27T18:34:29.141Z,18.90
2022-08-27T18:36:58.145Z,18.90
2022-08-27T18:39:27.871Z,18.90
2022-08-27T18:41:57.041Z,18.80
2022-08-27T18:44:26.299Z,18.80
2022-08-27T18:46:56.784Z,18.80
2022-08-27T18:49:26.785Z,18.80
2022-08-27T18:51:56.281Z,18.80
2022-08-27T18:54:27.392Z,18.70
2022-08-27T18:56:58.237Z,18.70
2022-08-27T18:59:27.485Z,18.70
2022-08-27T19:01:58.164Z,18.60
2022-08-27T19:04:27.840Z,18.60
2022-08-27T19:06:56.907Z,18.60
2022-08-27T19:09:26.341Z,18.60
2022-08-27T19:11:55.525Z,18.60
2022-08-27T19:14:24.715Z,18.60
2022-08-27T19:16:56.142Z,18.60
2022-08-27T19:19:27.585Z,18.50
2022-08-27T19:21:56.609Z,18.50
2022-08-27T19:24:30.061Z,18.50
2022-08-27T19:27:06.265Z,18.50
2022-08-27T19:29:35.377Z,18.40
2022-08-27T19:32:04.682Z,18.40
2022-08-27T19:34:35.258Z,18.40
2022-08-27T19:37:06.240Z,18.40
2022-08-27T19:39:38.354Z,18.40
2022-08-27T19:42:07.998Z,18.30
2022-08-27T19:44:37.219Z,18.30
2022-08-27T19:47:08.431Z,18.30
2022-08-27T19:49:40.269Z,18.30
2022-08-27T19:52:09.709Z,18.20
2022-08-27T19:54:56.870Z,18.20
2022-08-27T19:57:28.176Z,18.20
2022-08-27T19:59:57.306Z,18.20
2022-08-27T20:02:26.990Z,18.20
2022-08-27T20:05:17.091Z,18.20
2022-08-27T20:07:46.753Z,18.20
2022-08-27T20:10:16.716Z,18.20
2022-08-27T20:12:45.950Z,18.20
2022-08-27T20:15:15.193Z,18.10
2022-08-27T20:17:45.390Z,18.10
2022-08-27T20:20:17.550Z,18.10
2022-08-27T20:22:46.669Z,18.00
2022-08-27T20:25:15.917Z,18.10
2022-08-27T20:27:45.005Z,18.00
2022-08-27T20:30:15.220Z,18.00
2022-08-27T20:32:46.799Z,18.00
2022-08-27T20:35:18.556Z,18.00
2022-08-27T20:37:47.984Z,18.00
2022-08-27T20:40:19.579Z,18.00
2022-08-27T20:42:48.760Z,18.00
2022-08-27T20:45:18.931Z,18.00
2022-08-27T20:47:50.670Z,17.90
2022-08-27T20:50:22.456Z,17.90
2022-08-27T20:52:52.416Z,17.90
2022-08-27T20:55:23.758Z,17.90
2022-08-27T20:58:10.226Z,17.90
2022-08-27T21:00:41.825Z,17.90
2022-08-27T21:03:12.702Z,17.90
2022-08-27T21:05:47.134Z,17.90
2022-08-27T21:08:17.474Z,17.90
2022-08-27T21:10:49.772Z,17.90
2022-08-27T21:13:19.625Z,17.90
2022-08-27T21:15:50.069Z,17.90
2022-08-27T21:18:29.901Z,17.90
2022-08-27T21:21:01.080Z,17.90
2022-08-27T21:23:30.922Z,17.90
2022-08-27T21:26:02.583Z,17.90
2022-08-27T21:28:31.736Z,17.90
2022-08-27T21:31:00.803Z,17.90
2022-08-27T21:33:29.890Z,17.90
2022-08-27T21:36:00.478Z,17.90
2022-08-27T21:38:30.033Z,17.90
2022-08-27T21:40:59.174Z,17.90
2022-08-27T21:43:28.379Z,17.90
2022-08-27T21:45:58.767Z,17.80
2022-08-27T21:48:28.514Z,17.80
2022-08-27T21:50:57.797Z,17.80
2022-08-27T21:53:28.209Z,17.80
2022-08-27T21:55:57.414Z,17.80
2022-08-27T21:58:26.873Z,17.80
2022-08-27T22:00:56.444Z,17.80
2022-08-27T22:03:26.285Z,17.80
2022-08-27T22:05:55.439Z,17.80
2022-08-27T22:08:24.823Z,17.80
2022-08-27T22:10:58.788Z,17.80
2022-08-27T22:13:28.521Z,17.80
2022-08-27T22:15:57.672Z,17.80
2022-08-27T22:18:26.863Z,17.80
2022-08-27T22:20:58.891Z,17.80
2022-08-27T22:23:28.928Z,17.80
2022-08-27T22:25:59.626Z,17.80
2022-08-27T22:28:29.263Z,17.80
2022-08-27T22:30:58.486Z,17.80
2022-08-27T22:33:27.857Z,17.80
2022-08-27T22:35:57.008Z,17.80
2022-08-27T22:38:26.250Z,17.70
2022-08-27T22:40:55.561Z,17.70
2022-08-27T22:43:26.065Z,17.70
2022-08-27T22:45:55.074Z,17.70
2022-08-27T22:48:24.124Z,17.70
2022-08-27T22:50:53.217Z,17.70
2022-08-27T22:53:22.343Z,17.70
2022-08-27T22:55:51.368Z,17.60
2022-08-27T22:58:24.441Z,17.60
2022-08-27T23:00:55.123Z,17.60
2022-08-27T23:03:24.226Z,17.60
2022-08-27T23:05:53.385Z,17.60
2022-08-27T23:08:23.110Z,17.50
2022-08-27T23:10:53.291Z,17.50
2022-08-27T23:13:23.467Z,17.50
2022-08-27T23:15:52.834Z,17.40
2022-08-27T23:18:23.266Z,17.40
2022-08-27T23:20:52.641Z,17.40
2022-08-27T23:23:21.762Z,17.30
2022-08-27T23:26:11.156Z,17.30
2022-08-27T23:28:40.569Z,17.30
2022-08-27T23:31:09.674Z,17.30
2022-08-27T23:33:40.542Z,17.30
2022-08-27T23:36:10.468Z,17.20
2022-08-27T23:38:39.649Z,17.20
2022-08-27T23:41:09.160Z,17.10
2022-08-27T23:43:38.196Z,17.00
2022-08-27T23:46:07.239Z,17.00
2022-08-27T23:48:36.442Z,17.00
2022-08-27T23:51:07.317Z,17.00
2022-08-27T23:53:36.527Z,16.90
2022-08-27T23:56:06.116Z,16.90
2022-08-27T23:58:35.165Z,16.90
